Time;durP1;ratioP1;P1;durP2;ratioP2;P2;SDS_P1;SDS_P2;PMS_P1;PMS_P2;Temp;Humidity;BMP_temperature;BMP_pressure;BME280_temperature;BME280_humidity;BME280_pressure;Samples;Min_cycle;Max_cycle;Signal;HPM_P1;HPM_P2
2021/12/15 00:00:43;;;;;;;61.30;33.35;;;;;;;8.08;100.00;102934.53;5074428;28;20491;-77
2021/12/15 00:03:08;;;;;;;59.03;33.15;;;;;;;8.01;100.00;102923.50;5074568;28;20044;-76
2021/12/15 00:05:35;;;;;;;56.25;33.30;;;;;;;8.05;100.00;102935.41;5074577;28;20423;-77
2021/12/15 00:08:11;;;;;;;62.83;35.13;;;;;;;8.04;100.00;102929.41;5074477;28;20025;-78
2021/12/15 00:10:38;;;;;;;54.72;31.77;;;;;;;8.04;100.00;102929.41;5074563;28;20123;-76
2021/12/15 00:13:04;;;;;;;58.47;32.22;;;;;;;8.08;100.00;102927.66;5071788;28;20028;-83
2021/12/15 00:15:30;;;;;;;57.83;32.08;;;;;;;8.07;100.00;102925.97;5054305;28;20384;-78
2021/12/15 00:17:57;;;;;;;59.78;34.55;;;;;;;8.01;100.00;102918.34;5054343;28;20091;-78
2021/12/15 00:20:23;;;;;;;60.55;32.47;;;;;;;8.08;100.00;102924.22;5054154;28;20021;-82
2021/12/15 00:22:52;;;;;;;57.50;31.45;;;;;;;8.07;100.00;102922.53;5054310;28;20461;-77
2021/12/15 00:25:19;;;;;;;56.85;31.30;;;;;;;7.98;100.00;102903.81;5054366;28;20071;-76
2021/12/15 00:27:45;;;;;;;58.35;33.03;;;;;;;8.07;100.00;102919.97;5054303;28;20025;-77
2021/12/15 00:30:11;;;;;;;60.60;32.80;;;;;;;8.07;100.00;102922.53;5053932;28;20033;-78
2021/12/15 00:32:36;;;;;;;58.22;33.92;;;;;;;7.92;100.00;102892.78;5054007;28;20102;-78
2021/12/15 00:35:04;;;;;;;58.38;33.10;;;;;;;8.06;100.00;102921.66;5052505;28;20021;-79
2021/12/15 00:37:29;;;;;;;60.90;33.70;;;;;;;8.04;100.00;102915.72;5053841;28;20119;-77
2021/12/15 00:39:54;;;;;;;56.05;32.17;;;;;;;8.05;100.00;102920.81;5053974;28;20521;-78
2021/12/15 00:42:20;;;;;;;57.90;31.95;;;;;;;8.04;100.00;102913.13;5053932;28;20079;-83
2021/12/15 00:44:46;;;;;;;58.10;32.03;;;;;;;8.03;100.00;102920.00;5053863;28;20030;-81
2021/12/15 00:47:11;;;;;;;62.50;34.38;;;;;;;8.02;100.00;102913.16;5053795;28;20025;-79
2021/12/15 00:49:38;;;;;;;59.92;32.97;;;;;;;8.02;100.00;102913.16;5053448;28;20028;-84
2021/12/15 00:52:05;;;;;;;61.90;34.72;;;;;;;8.03;100.00;102916.59;5053730;28;20128;-81
2021/12/15 00:54:31;;;;;;;60.50;32.30;;;;;;;8.02;100.00;102914.88;5053731;28;20028;-81
2021/12/15 00:56:57;;;;;;;61.20;33.80;;;;;;;7.96;100.00;102902.13;5053769;28;20048;-80
2021/12/15 00:59:23;;;;;;;63.65;33.72;;;;;;;7.93;100.00;102902.19;5053664;28;20025;-79
2021/12/15 01:01:51;;;;;;;59.05;33.45;;;;;;;7.61;100.00;102847.06;5053472;28;20119;-83
2021/12/15 01:04:19;;;;;;;64.03;34.92;;;;;;;8.01;100.00;102913.19;5053454;28;20400;-79
2021/12/15 01:06:49;;;;;;;57.90;32.90;;;;;;;8.01;100.00;102914.03;5053740;28;20029;-83
2021/12/15 01:09:29;;;;;;;56.40;31.85;;;;;;;8.02;100.00;102920.88;5053596;28;20025;-76
2021/12/15 01:20:10;;;;;;;56.13;31.75;;;;;;;7.99;100.00;102920.94;4992134;28;20037;-76
2021/12/15 01:22:41;;;;;;;64.40;33.92;;;;;;;8.02;100.00;102922.63;4992043;28;20034;-76
2021/12/15 01:25:30;;;;;;;57.75;32.95;;;;;;;7.71;100.00;102863.19;4991667;28;20046;-76
2021/12/15 01:27:55;;;;;;;62.60;32.65;;;;;;;8.01;100.00;102914.03;4991873;28;20029;-79
2021/12/15 01:30:26;;;;;;;60.03;31.60;;;;;;;7.90;100.00;102908.25;4991680;28;20471;-78
2021/12/15 01:32:52;;;;;;;59.55;32.63;;;;;;;7.87;100.00;102903.19;4991426;28;20074;-81
2021/12/15 01:35:18;;;;;;;57.80;31.75;;;;;;;8.01;100.00;102919.19;4992096;28;20126;-83
2021/12/15 01:37:45;;;;;;;59.78;32.47;;;;;;;7.94;100.00;102909.03;4991566;28;20439;-79
2021/12/15 01:40:19;;;;;;;59.90;32.65;;;;;;;7.85;100.00;102899.75;4991481;28;20121;-77
2021/12/15 01:42:45;;;;;;;55.00;29.55;;;;;;;7.85;100.00;102893.78;4991592;28;20537;-79
2021/12/15 01:48:10;;;;;;;58.30;31.05;;;;;;;7.85;100.00;102897.19;4991495;28;20461;-81
2021/12/15 01:50:36;;;;;;;60.38;31.55;;;;;;;7.86;100.00;102898.88;4991952;28;20035;-75
2021/12/15 01:53:03;;;;;;;58.10;30.70;;;;;;;7.97;100.00;102925.28;5052613;28;20021;-79
2021/12/15 01:55:28;;;;;;;57.78;31.35;;;;;;;7.97;100.00;102927.00;5052874;28;20032;-81
2021/12/15 01:57:54;;;;;;;60.30;31.80;;;;;;;7.97;100.00;102927.84;5034451;28;20041;-83
2021/12/15 02:00:32;;;;;;;60.15;32.25;;;;;;;7.99;100.00;102930.41;5052637;28;20028;-78
2021/12/15 02:02:58;;;;;;;60.10;31.42;;;;;;;7.79;100.00;102899.03;5052465;28;20021;-82
2021/12/15 02:05:28;;;;;;;59.15;30.83;;;;;;;8.00;100.00;102943.22;5052415;28;20550;-81
2021/12/15 02:07:54;;;;;;;55.85;30.00;;;;;;;7.99;100.00;102940.69;5052619;28;20532;-82
2021/12/15 02:10:24;;;;;;;59.00;31.65;;;;;;;8.01;100.00;102938.94;5052584;28;20112;-77
2021/12/15 02:12:49;;;;;;;55.10;29.95;;;;;;;8.01;100.00;102947.50;5052527;28;20116;-84
2021/12/15 02:15:18;;;;;;;57.40;30.73;;;;;;;8.01;100.00;102947.50;5052367;28;20104;-82
2021/12/15 02:17:45;;;;;;;57.03;30.65;;;;;;;8.00;100.00;102948.38;5052341;28;20072;-81
2021/12/15 02:20:14;;;;;;;55.63;29.55;;;;;;;8.01;100.00;102944.06;5052340;28;20070;-79
2021/12/15 02:22:40;;;;;;;57.63;29.80;;;;;;;7.98;100.00;102942.41;5052425;28;20167;-82
2021/12/15 02:25:10;;;;;;;61.47;31.15;;;;;;;7.95;100.00;102937.31;5052372;28;20025;-84
2021/12/15 02:27:35;;;;;;;57.00;30.75;;;;;;;7.79;100.00;102907.59;5052234;28;20033;-79
2021/12/15 02:30:18;;;;;;;56.85;29.02;;;;;;;8.03;100.00;102945.72;5052317;28;20159;-81
2021/12/15 02:33:03;;;;;;;56.10;27.58;;;;;;;8.04;100.00;102947.44;5051934;28;20025;-82
2021/12/15 02:38:14;;;;;;;52.78;28.08;;;;;;;7.94;100.00;102933.03;5052301;28;20037;-83
2021/12/15 02:40:39;;;;;;;58.70;30.75;;;;;;;8.03;100.00;102948.31;5052303;28;20048;-80
2021/12/15 02:43:06;;;;;;;58.92;30.52;;;;;;;8.06;100.00;102944.81;5052107;28;20051;-84
2021/12/15 02:45:32;;;;;;;61.95;31.52;;;;;;;8.03;100.00;102945.72;5052242;28;20032;-80
2021/12/15 02:47:58;;;;;;;60.00;30.80;;;;;;;7.96;100.00;102928.72;5052149;28;20029;-79
2021/12/15 02:50:27;;;;;;;63.25;31.02;;;;;;;7.91;100.00;102921.97;5051950;28;20036;-79
2021/12/15 02:52:54;;;;;;;60.10;30.42;;;;;;;7.84;100.00;102910.94;5052001;28;20055;-78
2021/12/15 02:55:20;;;;;;;61.42;31.48;;;;;;;7.82;100.00;102907.53;5052090;28;20028;-83
2021/12/15 02:57:47;;;;;;;57.35;30.08;;;;;;;8.03;100.00;102947.47;5034520;28;20029;-81
2021/12/15 03:00:19;;;;;;;64.18;31.30;;;;;;;8.03;100.00;102942.31;5055837;28;20021;-77
2021/12/15 03:03:33;;;;;;;66.10;32.67;;;;;;;8.04;100.00;102949.16;5055703;28;20029;-82
2021/12/15 03:06:17;;;;;;;56.35;29.23;;;;;;;7.98;100.00;102929.56;5055570;28;20033;-84
2021/12/15 03:08:58;;;;;;;57.95;31.17;;;;;;;8.01;100.00;102937.19;5055334;28;20048;-77
2021/12/15 03:16:55;;;;;;;60.08;31.02;;;;;;;8.03;100.00;102939.75;5055490;28;20044;-81
2021/12/15 03:19:21;;;;;;;58.33;30.13;;;;;;;8.02;100.00;102930.31;5055547;28;20476;-79
2021/12/15 03:21:46;;;;;;;58.33;31.00;;;;;;;7.94;100.00;102919.31;5055499;28;20029;-78
2021/12/15 03:24:18;;;;;;;63.28;31.98;;;;;;;8.01;100.00;102939.78;5055185;28;20091;-80
2021/12/15 03:26:51;;;;;;;;;;;;;;;8.05;100.00;102931.09;5055882;28;20108;-78
2021/12/15 03:37:43;;;;;;;58.65;29.48;;;;;;;7.97;100.00;102929.59;4993703;28;20113;-84
2021/12/15 03:40:15;;;;;;;58.92;28.85;;;;;;;7.88;100.00;102911.75;4993735;28;20483;-80
2021/12/15 03:42:47;;;;;;;57.80;30.08;;;;;;;7.78;100.00;102897.34;4977347;28;20509;-82
2021/12/15 03:45:24;;;;;;;52.67;28.08;;;;;;;8.02;100.00;102943.19;4993612;28;20080;-81
2021/12/15 03:47:50;;;;;;;59.05;29.33;;;;;;;7.99;100.00;102950.97;4993491;28;20030;-80
2021/12/15 03:50:19;;;;;;;58.25;28.95;;;;;;;8.02;100.00;102950.91;4993372;28;20057;-79
2021/12/15 03:52:49;;;;;;;58.08;29.80;;;;;;;8.00;100.00;102952.66;4993385;28;20046;-81
2021/12/15 03:55:17;;;;;;;55.45;28.90;;;;;;;7.92;100.00;102933.94;4993422;28;20049;-79
2021/12/15 03:57:43;;;;;;;57.38;28.73;;;;;;;8.04;100.00;102959.44;4993516;28;20041;-84
2021/12/15 04:00:10;;;;;;;54.00;27.70;;;;;;;8.04;100.00;102956.88;4993404;28;20498;-81
2021/12/15 04:02:36;;;;;;;60.65;29.35;;;;;;;8.05;100.00;102956.00;4993416;28;20074;-83
2021/12/15 04:05:02;;;;;;;55.88;29.38;;;;;;;8.05;100.00;102953.41;4993115;28;20100;-79
2021/12/15 04:07:27;;;;;;;56.15;29.08;;;;;;;8.03;100.00;102956.03;4993039;28;20074;-79
2021/12/15 04:09:53;;;;;;;54.50;27.67;;;;;;;7.92;100.00;102932.22;4992965;28;20585;-82
2021/12/15 04:12:18;;;;;;;57.83;29.08;;;;;;;8.03;100.00;102956.03;4993333;28;20473;-78
2021/12/15 04:14:46;;;;;;;54.65;28.25;;;;;;;8.04;100.00;102954.31;5024899;28;20064;-83
2021/12/15 04:17:30;;;;;;;56.97;29.20;;;;;;;7.96;100.00;102945.88;5054520;28;20056;-78
2021/12/15 04:20:02;;;;;;;52.15;27.95;;;;;;;7.85;100.00;102920.34;5053955;28;20078;-76
2021/12/15 04:22:28;;;;;;;56.22;29.08;;;;;;;8.04;100.00;102960.28;5054123;28;20021;-78
2021/12/15 04:24:54;;;;;;;57.15;29.92;;;;;;;8.01;100.00;102957.78;5054386;28;20027;-77
2021/12/15 04:27:20;;;;;;;57.17;29.45;;;;;;;7.96;100.00;102956.16;5054525;28;20025;-80
2021/12/15 04:29:47;;;;;;;53.67;27.90;;;;;;;8.03;100.00;102965.47;5054251;28;20021;-77
2021/12/15 04:32:19;;;;;;;53.80;28.50;;;;;;;7.94;100.00;102945.91;5036225;28;20412;-84
2021/12/15 04:34:45;;;;;;;56.90;30.00;;;;;;;7.99;100.00;102963.84;5053811;28;20767;-83
2021/12/15 04:37:10;;;;;;;55.05;28.35;;;;;;;8.04;100.00;102962.03;5054231;28;20098;-77
2021/12/15 04:39:36;;;;;;;57.40;28.20;;;;;;;8.03;100.00;102966.31;5053917;28;20047;-81
2021/12/15 04:42:03;;;;;;;56.50;28.70;;;;;;;7.97;100.00;102965.59;5054048;28;20028;-82
2021/12/15 04:44:31;;;;;;;56.92;30.08;;;;;;;8.01;100.00;102973.22;5053956;28;20045;-78
2021/12/15 04:47:07;;;;;;;51.15;28.38;;;;;;;8.02;100.00;102969.78;5053831;28;20033;-78
2021/12/15 04:49:47;;;;;;;52.33;27.77;;;;;;;8.03;100.00;102974.03;5053730;28;20112;-82
2021/12/15 04:52:16;;;;;;;55.90;27.52;;;;;;;8.04;100.00;102970.59;5053851;28;20040;-80
2021/12/15 04:54:43;;;;;;;54.85;27.48;;;;;;;8.03;100.00;102974.03;5053807;28;20025;-82
2021/12/15 04:57:10;;;;;;;53.03;27.00;;;;;;;8.04;100.00;102975.72;5053593;28;20464;-79
2021/12/15 04:59:37;;;;;;;52.17;27.70;;;;;;;8.04;100.00;102977.47;5053654;28;20025;-81
2021/12/15 05:02:04;;;;;;;52.95;27.73;;;;;;;8.03;100.00;102971.47;5053519;28;20036;-82
2021/12/15 05:04:29;;;;;;;51.15;26.95;;;;;;;7.92;100.00;102954.53;5053491;28;20021;-78
2021/12/15 05:06:55;;;;;;;50.75;27.02;;;;;;;8.10;100.00;102986.81;5053417;28;20027;-80
2021/12/15 05:09:21;;;;;;;53.47;27.13;;;;;;;7.78;100.00;102929.06;5053486;28;20036;-82
2021/12/15 05:11:49;;;;;;;51.22;27.05;;;;;;;8.07;100.00;102980.00;5053545;28;20021;-79
2021/12/15 05:14:15;;;;;;;49.97;26.70;;;;;;;8.08;100.00;102973.13;5053293;28;20095;-78
2021/12/15 05:16:40;;;;;;;47.88;25.80;;;;;;;7.93;100.00;102940.78;5053070;28;20041;-79
2021/12/15 05:19:06;;;;;;;50.38;27.17;;;;;;;8.15;100.00;102982.41;5053107;28;20036;-79
2021/12/15 05:21:32;;;;;;;51.95;27.20;;;;;;;8.13;100.00;102984.16;5033959;28;20480;-78
2021/12/15 05:24:07;;;;;;;53.78;27.77;;;;;;;8.14;100.00;102991.84;5053269;28;20029;-80
2021/12/15 05:26:33;;;;;;;53.17;26.15;;;;;;;8.08;100.00;102980.84;5053189;28;20066;-84
2021/12/15 05:28:58;;;;;;;51.58;27.45;;;;;;;8.16;100.00;102989.25;5053052;28;20033;-78
2021/12/15 05:31:23;;;;;;;55.47;27.27;;;;;;;8.16;100.00;102995.28;5052956;28;20028;-77
2021/12/15 05:33:49;;;;;;;52.00;26.75;;;;;;;8.16;100.00;102994.41;5053276;28;20032;-82
2021/12/15 05:36:14;;;;;;;51.60;27.42;;;;;;;8.17;100.00;102988.41;5052888;28;20051;-84
2021/12/15 05:38:40;;;;;;;49.70;27.13;;;;;;;8.15;100.00;102990.97;5053009;28;20032;-80
2021/12/15 05:41:05;;;;;;;52.60;27.27;;;;;;;8.14;100.00;102994.44;5053044;28;20033;-84
2021/12/15 05:43:31;;;;;;;51.97;26.70;;;;;;;8.14;100.00;102991.84;5052718;28;20488;-77
2021/12/15 05:45:56;;;;;;;54.88;27.35;;;;;;;8.14;100.00;102997.00;5052680;28;20114;-80
2021/12/15 05:48:22;;;;;;;53.95;27.77;;;;;;;8.11;100.00;102984.19;5052938;28;20020;-80
2021/12/15 05:50:50;;;;;;;57.40;27.48;;;;;;;8.13;100.00;102987.59;5052689;28;20043;-84
2021/12/15 05:53:15;;;;;;;54.95;27.60;;;;;;;8.07;100.00;102982.56;5052881;28;20021;-84
2021/12/15 05:55:42;;;;;;;52.72;28.42;;;;;;;8.06;100.00;102986.00;5052673;28;20506;-84
2021/12/15 05:58:08;;;;;;;54.53;27.67;;;;;;;8.04;100.00;102974.88;5052573;28;20056;-83
2021/12/15 06:00:37;;;;;;;49.88;26.42;;;;;;;8.13;100.00;102987.59;5052512;28;20048;-77
2021/12/15 06:03:04;;;;;;;59.13;29.15;;;;;;;8.13;100.00;102994.47;5052708;28;20043;-78
2021/12/15 06:05:30;;;;;;;55.88;27.55;;;;;;;8.13;100.00;102997.88;5034668;28;20039;-80
2021/12/15 06:07:55;;;;;;;54.03;28.10;;;;;;;8.12;100.00;102995.34;5052487;28;20020;-78
2021/12/15 06:10:25;;;;;;;55.78;28.20;;;;;;;8.12;100.00;103003.91;5034139;28;20068;-77
2021/12/15 06:12:51;;;;;;;59.20;28.23;;;;;;;8.00;100.00;102978.41;5052269;28;20025;-77
2021/12/15 06:15:22;;;;;;;54.15;27.23;;;;;;;8.14;100.00;103004.72;5052427;28;20040;-77
2021/12/15 06:18:07;;;;;;;56.70;28.47;;;;;;;8.15;100.00;103005.56;5052497;28;20045;-79
2021/12/15 06:20:34;;;;;;;57.20;28.02;;;;;;;8.14;100.00;103015.00;5052156;28;20029;-78
2021/12/15 06:23:01;;;;;;;58.05;28.77;;;;;;;8.02;100.00;102992.94;5052512;28;20035;-79
2021/12/15 06:25:28;;;;;;;56.80;28.38;;;;;;;8.15;100.00;103008.16;5052373;28;20033;-79
2021/12/15 06:27:53;;;;;;;53.13;26.65;;;;;;;8.10;100.00;103000.53;5052292;28;20108;-80
2021/12/15 06:30:19;;;;;;;60.03;29.48;;;;;;;8.15;100.00;103016.72;5052316;28;20417;-79
2021/12/15 06:32:44;;;;;;;58.92;27.55;;;;;;;8.03;100.00;102992.06;5035947;28;20140;-83
2021/12/15 06:35:10;;;;;;;58.85;29.23;;;;;;;7.94;100.00;102983.66;5038200;28;20127;-75
2021/12/15 06:37:36;;;;;;;57.55;27.80;;;;;;;8.18;100.00;103019.25;5056301;28;20499;-76
2021/12/15 06:40:07;;;;;;;63.10;29.17;;;;;;;8.18;100.00;103026.97;5056243;28;20033;-77
2021/12/15 06:42:35;;;;;;;56.78;28.80;;;;;;;8.19;100.00;103022.66;5056187;28;20017;-84
2021/12/15 06:45:00;;;;;;;58.95;27.85;;;;;;;8.17;100.00;103024.44;5038281;28;20063;-78
2021/12/15 06:58:24;;;;;;;61.03;29.48;;;;;;;8.15;100.00;103013.28;4975249;28;20524;-80
2021/12/15 07:00:55;;;;;;;66.82;30.50;;;;;;;7.96;100.00;102984.47;4975060;28;20039;-86
2021/12/15 07:03:23;;;;;;;60.83;30.13;;;;;;;8.19;100.00;103028.66;4975128;28;20029;-84
2021/12/15 07:05:49;;;;;;;62.03;29.05;;;;;;;8.20;100.00;103025.22;4974407;28;20372;-73
2021/12/15 07:08:19;;;;;;;65.03;28.83;;;;;;;8.22;100.00;103043.19;4974717;28;20946;-75
2021/12/15 07:10:49;;;;;;;68.13;30.80;;;;;;;8.21;100.00;103041.50;4973829;28;20031;-80
2021/12/15 07:13:15;;;;;;;61.97;28.70;;;;;;;8.22;100.00;103035.47;4982220;28;20133;-78
2021/12/15 07:15:41;;;;;;;66.22;31.27;;;;;;;8.21;100.00;103050.06;5013713;28;20121;-78
2021/12/15 07:18:10;;;;;;;58.05;29.08;;;;;;;8.21;100.00;103044.91;5013721;28;20065;-83
2021/12/15 07:20:44;;;;;;;66.00;30.65;;;;;;;8.22;100.00;103045.78;4996941;28;20121;-79
2021/12/15 07:23:19;;;;;;;63.55;29.63;;;;;;;8.23;100.00;103050.88;5013513;28;20061;-82
2021/12/15 07:25:46;;;;;;;63.60;30.30;;;;;;;8.24;100.00;103055.16;5013590;28;20065;-75
2021/12/15 07:28:13;;;;;;;69.68;31.73;;;;;;;8.19;100.00;103041.53;5013663;28;20022;-74
2021/12/15 07:30:39;;;;;;;64.55;30.70;;;;;;;8.24;100.00;103046.59;5013350;28;20092;-77
2021/12/15 07:33:07;;;;;;;67.97;30.98;;;;;;;8.24;100.00;103046.59;5060092;28;20495;-76
2021/12/15 07:35:33;;;;;;;66.63;29.63;;;;;;;8.21;100.00;103050.06;5074998;28;20028;-76
2021/12/15 07:37:58;;;;;;;68.68;31.20;;;;;;;8.27;100.00;103043.97;5074795;28;20043;-77
2021/12/15 07:40:25;;;;;;;71.35;32.00;;;;;;;8.27;100.00;103049.97;5075069;28;20464;-76
2021/12/15 07:43:07;;;;;;;64.68;29.45;;;;;;;7.99;100.00;103005.84;5075261;28;20039;-81
2021/12/15 07:45:37;;;;;;;;;;;;;;;8.29;100.00;103053.38;5075401;28;20469;-80
2021/12/15 07:48:04;;;;;;;65.95;30.90;;;;;;;8.01;100.00;103005.81;5074777;28;19920;-79
2021/12/15 07:50:32;;;;;;;74.53;31.52;;;;;;;8.26;100.00;103058.56;5074696;28;20491;-84
2021/12/15 07:52:57;;;;;;;69.60;31.73;;;;;;;7.92;100.00;103005.97;5074669;28;20029;-81
2021/12/15 07:55:25;;;;;;;67.50;30.40;;;;;;;8.26;100.00;103056.00;5074506;28;20033;-80
2021/12/15 07:57:52;;;;;;;69.72;35.28;;;;;;;8.27;100.00;103059.41;5074752;28;20027;-82
2021/12/15 08:00:19;;;;;;;69.22;32.28;;;;;;;8.26;100.00;103057.72;5074655;28;20082;-82
2021/12/15 08:02:45;;;;;;;63.47;31.42;;;;;;;8.28;100.00;103056.81;5074688;28;20036;-83
2021/12/15 08:05:11;;;;;;;71.75;32.58;;;;;;;8.27;100.00;103060.28;5074509;28;20045;-80
2021/12/15 08:07:36;;;;;;;68.32;31.98;;;;;;;7.95;100.00;103005.91;5074737;28;20028;-81
2021/12/15 08:10:08;;;;;;;67.78;30.58;;;;;;;8.24;100.00;103060.31;5074708;28;20040;-81
2021/12/15 08:12:33;;;;;;;66.75;30.65;;;;;;;8.32;100.00;103073.03;5074472;28;20021;-82
2021/12/15 08:14:59;;;;;;;68.90;33.00;;;;;;;8.21;100.00;103056.94;5057752;28;20373;-83
2021/12/15 08:17:24;;;;;;;68.93;32.35;;;;;;;8.24;100.00;103057.72;5054383;28;20417;-83
2021/12/15 08:19:50;;;;;;;66.63;31.35;;;;;;;8.11;100.00;103027.09;5054192;28;20032;-78
2021/12/15 08:22:16;;;;;;;70.68;32.80;;;;;;;8.34;100.00;103077.31;5054314;28;20021;-80
2021/12/15 08:24:41;;;;;;;69.70;31.17;;;;;;;7.87;100.00;102989.78;5054421;28;20495;-83
2021/12/15 08:27:07;;;;;;;69.85;31.90;;;;;;;8.16;100.00;103036.44;5054149;28;20029;-83
2021/12/15 08:29:32;;;;;;;70.78;32.55;;;;;;;8.20;100.00;103047.53;5054273;28;20463;-82
2021/12/15 08:31:58;;;;;;;73.65;32.80;;;;;;;8.08;100.00;103027.16;5054027;28;20039;-78
2021/12/15 08:34:23;;;;;;;69.88;34.17;;;;;;;8.42;100.00;103078.91;5053819;28;20024;-80
2021/12/15 08:36:51;;;;;;;70.15;32.10;;;;;;;8.45;100.00;103077.13;5053983;28;20021;-84
2021/12/15 08:39:17;;;;;;;73.78;32.72;;;;;;;8.46;100.00;103081.41;5053946;28;20119;-83
2021/12/15 08:41:43;;;;;;;69.38;32.00;;;;;;;8.49;100.00;103083.09;5054001;28;20045;-82
2021/12/15 08:44:09;;;;;;;73.32;33.50;;;;;;;8.37;100.00;103062.72;5054122;28;20086;-83
2021/12/15 08:46:42;;;;;;;72.88;34.63;;;;;;;8.51;100.00;103086.47;5053931;28;20074;-83
2021/12/15 08:49:12;;;;;;;69.45;34.33;;;;;;;8.53;100.00;103083.00;5053795;28;20045;-83
2021/12/15 08:51:38;;;;;;;67.97;32.85;;;;;;;8.55;100.00;103082.94;5053907;28;20110;-84
2021/12/15 08:54:08;;;;;;;70.07;32.75;;;;;;;8.36;100.00;103048.13;5053639;28;20029;-84
2021/12/15 08:56:34;;;;;;;66.40;31.80;;;;;;;8.47;100.00;103070.25;5034928;28;20025;-86
2021/12/15 08:58:59;;;;;;;71.38;34.20;;;;;;;8.56;100.00;103084.69;5035722;28;20103;-86
2021/12/15 09:01:25;;;;;;;73.88;34.08;;;;;;;8.57;100.00;103083.81;5054327;28;20034;-83
2021/12/15 09:03:52;;;;;;;72.82;34.63;;;;;;;8.58;100.00;103082.91;5035840;28;20439;-83
2021/12/15 09:06:17;;;;;;;64.15;32.13;;;;;;;8.60;100.00;103086.31;5053787;28;20033;-82
2021/12/15 09:08:44;;;;;;;73.25;33.13;;;;;;;8.62;100.00;103093.13;5035610;28;20083;-82
2021/12/15 09:11:16;;;;;;;70.18;33.20;;;;;;;8.42;100.00;103048.88;5053425;28;20028;-84
2021/12/15 09:13:43;;;;;;;;;;;;;;;8.71;100.00;103088.69;5043826;28;20377;-84
2021/12/15 09:16:11;;;;;;;66.13;32.42;;;;;;;8.69;100.00;103096.44;5073588;28;19912;-82
2021/12/15 09:18:40;;;;;;;70.20;33.58;;;;;;;8.71;100.00;103097.25;5073632;28;20598;-84
2021/12/15 09:21:07;;;;;;;67.95;33.60;;;;;;;8.53;100.00;103071.84;5075081;28;20103;-81
2021/12/15 09:23:33;;;;;;;69.78;34.72;;;;;;;8.71;100.00;103098.97;5072787;28;20052;-82
2021/12/15 09:25:58;;;;;;;68.22;33.00;;;;;;;8.72;100.00;103109.25;5073036;28;20086;-80
2021/12/15 09:28:25;;;;;;;67.95;33.35;;;;;;;8.75;100.00;103105.75;5073077;28;20547;-83
2021/12/15 09:30:55;;;;;;;67.50;33.78;;;;;;;8.76;100.00;103110.91;5075452;28;20112;-84
2021/12/15 09:33:24;;;;;;;68.63;33.72;;;;;;;8.79;100.00;103107.41;5071128;28;20036;-84
2021/12/15 09:35:50;;;;;;;67.85;34.65;;;;;;;8.52;100.00;103060.69;5074144;28;20425;-82
2021/12/15 09:38:18;;;;;;;66.50;33.78;;;;;;;8.85;100.00;103125.34;5076605;28;20043;-86
2021/12/15 09:40:44;;;;;;;67.55;34.92;;;;;;;8.85;100.00;103112.47;5076232;28;20070;-82
2021/12/15 09:43:11;;;;;;;66.43;34.50;;;;;;;8.87;100.00;103121.84;5073132;28;20056;-83
2021/12/15 10:07:04;;;;;;;61.38;33.60;;;;;;;9.28;99.71;103124.50;5072876;28;20471;-86
2021/12/15 10:18:01;;;;;;;64.60;33.17;;;;;;;9.44;98.68;103131.88;5053792;28;20098;-86
2021/12/15 10:20:29;;;;;;;63.25;33.95;;;;;;;9.49;98.69;103129.19;5052471;28;20040;-83
2021/12/15 10:23:00;;;;;;;61.40;34.40;;;;;;;9.55;98.08;103123.91;5052369;28;20049;-85
2021/12/15 10:25:27;;;;;;;61.45;34.75;;;;;;;9.57;97.72;103131.59;5051977;28;20074;-83
2021/12/15 10:28:05;;;;;;;60.47;33.38;;;;;;;9.60;97.70;103131.53;5052068;28;20036;-83
2021/12/15 10:30:44;;;;;;;59.45;33.85;;;;;;;9.65;97.71;103124.56;5052110;28;20029;-84
2021/12/15 10:33:20;;;;;;;66.28;34.20;;;;;;;9.63;97.23;103119.41;5052146;28;20025;-83
2021/12/15 10:36:02;;;;;;;63.15;34.65;;;;;;;9.64;97.15;103122.84;5051863;28;20423;-83
2021/12/15 10:38:32;;;;;;;61.13;35.03;;;;;;;9.66;97.35;103129.66;5051868;28;20079;-84
2021/12/15 10:41:15;;;;;;;63.97;35.88;;;;;;;9.67;97.11;103125.34;5052378;28;20027;-83
2021/12/15 10:44:13;;;;;;;60.72;34.67;;;;;;;9.71;97.36;103124.41;5051787;28;20499;-83
2021/12/15 10:46:42;;;;;;;58.08;33.97;;;;;;;9.60;96.81;103105.72;4990530;28;20051;-81
2021/12/15 10:49:42;;;;;;;61.65;35.28;;;;;;;9.72;96.88;103126.09;4990455;28;20034;-83
2021/12/15 10:52:10;;;;;;;60.03;35.28;;;;;;;9.61;96.48;103110.84;4932556;29;20036;-84
2021/12/15 10:54:46;;;;;;;58.05;34.75;;;;;;;9.73;96.94;103135.53;4932114;29;20050;-82
2021/12/15 10:57:34;;;;;;;58.33;34.92;;;;;;;9.49;96.69;103093.06;4931102;29;20452;-78
2021/12/15 11:00:00;;;;;;;57.78;34.80;;;;;;;9.74;97.08;103139.81;4932563;29;20036;-81
2021/12/15 11:02:29;;;;;;;61.10;35.35;;;;;;;9.73;96.70;103131.25;4917240;29;20532;-82
2021/12/15 11:05:09;;;;;;;63.05;36.30;;;;;;;9.74;97.23;103130.34;4932779;29;20039;-82
2021/12/15 11:07:37;;;;;;;60.83;35.05;;;;;;;9.76;96.86;103130.31;4932501;29;20043;-82
2021/12/15 11:10:24;;;;;;;63.58;36.95;;;;;;;9.75;96.97;103126.03;4932229;29;20480;-82
2021/12/15 11:13:12;;;;;;;60.95;36.17;;;;;;;9.75;97.15;103113.13;4932490;29;20032;-83
2021/12/15 11:15:48;;;;;;;65.18;36.75;;;;;;;9.84;96.61;103124.97;4932075;29;20043;-82
2021/12/15 11:18:22;;;;;;;63.83;36.97;;;;;;;9.82;96.57;103117.25;4932346;29;20051;-81
2021/12/15 11:20:55;;;;;;;62.33;36.47;;;;;;;9.91;96.38;103122.19;4935762;29;20495;-82
2021/12/15 11:23:22;;;;;;;65.18;38.10;;;;;;;9.93;96.24;103123.03;4936010;28;20064;-82
2021/12/15 11:25:50;;;;;;;60.60;36.10;;;;;;;9.76;96.04;103089.03;4963664;28;20407;-83
2021/12/15 11:28:24;;;;;;;64.68;37.28;;;;;;;9.89;96.03;103116.22;4967743;28;20040;-78
2021/12/15 11:31:06;;;;;;;63.55;37.13;;;;;;;9.77;96.14;103089.00;5035305;28;20438;-82
2021/12/15 11:33:46;;;;;;;62.97;38.10;;;;;;;10.07;95.89;103122.69;5037218;28;20025;-84
2021/12/15 11:36:22;;;;;;;59.25;36.40;;;;;;;9.53;95.44;103031.94;5039861;28;20037;-85
2021/12/15 11:39:00;;;;;;;60.40;36.45;;;;;;;10.08;95.14;103114.06;5035630;28;20021;-89
2021/12/15 11:41:38;;;;;;;57.97;36.03;;;;;;;10.11;94.96;103111.41;5035604;28;20034;-89
2021/12/15 11:44:16;;;;;;;56.10;34.78;;;;;;;10.12;94.68;103112.25;5036578;28;20013;-80
2021/12/15 11:46:45;;;;;;;58.10;36.00;;;;;;;10.12;94.86;103113.09;5034873;28;20469;-88
2021/12/15 11:49:14;;;;;;;56.45;35.88;;;;;;;10.12;94.82;103112.25;5034430;28;20018;-81
2021/12/15 11:51:45;;;;;;;55.92;36.00;;;;;;;10.12;94.67;103109.66;5034718;28;20033;-89
2021/12/15 11:54:35;;;;;;;57.45;35.47;;;;;;;9.97;94.75;103083.34;5036475;28;20025;-87
2021/12/15 11:57:25;;;;;;;59.55;35.25;;;;;;;10.09;94.29;103097.69;4935888;29;20408;-87
2021/12/15 11:59:56;;;;;;;53.78;33.63;;;;;;;10.10;94.30;103106.28;4919965;29;20202;-92
2021/12/15 12:02:31;;;;;;;53.88;34.08;;;;;;;10.09;94.30;103112.31;4935702;28;20110;-90
2021/12/15 12:05:24;;;;;;;53.33;34.15;;;;;;;10.10;94.19;103119.19;4935547;29;20508;-82
2021/12/15 12:08:02;;;;;;;54.25;32.80;;;;;;;10.07;93.91;103107.19;4935133;29;20046;-84
2021/12/15 12:10:34;;;;;;;52.88;33.20;;;;;;;10.07;93.99;103118.38;4935142;29;20039;-86
2021/12/15 12:13:07;;;;;;;49.70;32.90;;;;;;;9.97;94.34;103096.25;4935095;29;20028;-88
2021/12/15 12:15:36;;;;;;;51.13;33.97;;;;;;;10.11;93.59;103103.66;4954789;28;20487;-84
2021/12/15 12:18:08;;;;;;;52.88;34.63;;;;;;;10.15;93.85;103102.72;4973437;28;20413;-89
2021/12/15 12:20:46;;;;;;;50.40;34.33;;;;;;;10.17;93.48;103100.09;4973333;28;20038;-87
2021/12/15 12:23:14;;;;;;;55.08;34.47;;;;;;;10.17;93.30;103098.34;4973252;28;20406;-89
2021/12/15 12:25:47;;;;;;;52.65;33.67;;;;;;;10.20;93.60;103092.25;4972983;28;20095;-84
2021/12/15 12:28:20;;;;;;;52.47;33.55;;;;;;;10.06;93.08;103072.81;4973181;28;20490;-87
2021/12/15 12:30:50;;;;;;;52.17;33.92;;;;;;;10.19;93.38;103091.41;4973160;28;20383;-87